createdAt,value
2023-05-07T00:02:22.618Z,74.06
2023-05-07T00:04:50.295Z,74.38
2023-05-07T00:07:18.435Z,75.44
2023-05-07T00:09:46.140Z,74.65
2023-05-07T00:12:13.704Z,77.46
2023-05-07T00:14:41.574Z,80.26
2023-05-07T00:17:09.153Z,82.29
2023-05-07T00:19:37.142Z,85.48
2023-05-07T00:22:04.619Z,86.79
2023-05-07T00:24:32.205Z,87.02
2023-05-07T00:26:59.678Z,87.31
2023-05-07T00:29:27.240Z,87.85
2023-05-07T00:31:55.975Z,88.08
2023-05-07T00:34:24.126Z,88.37
2023-05-07T00:36:51.638Z,89.38
2023-05-07T00:39:19.129Z,90.97
2023-05-07T00:41:47.179Z,91.01
2023-05-07T00:44:15.479Z,90.46
2023-05-07T00:46:43.644Z,90.68
2023-05-07T00:49:11.863Z,91.15
2023-05-07T00:51:39.356Z,90.22
2023-05-07T00:54:07.016Z,90.12
2023-05-07T00:56:35.489Z,89.64
2023-05-07T00:59:04.272Z,90.19
2023-05-07T01:01:32.683Z,89.78
2023-05-07T01:04:00.563Z,90.25
2023-05-07T01:06:30.646Z,90.94
2023-05-07T01:08:59.263Z,91.26
2023-05-07T01:11:27.384Z,90.59
2023-05-07T01:13:56.038Z,90.69
2023-05-07T01:16:24.258Z,90.88
2023-05-07T01:18:52.000Z,90.59
2023-05-07T01:21:20.105Z,90.57
2023-05-07T01:23:48.462Z,90.04
2023-05-07T01:26:16.167Z,89.99
2023-05-07T01:28:47.097Z,90.61
2023-05-07T01:31:15.431Z,89.51
2023-05-07T01:33:45.869Z,90.69
2023-05-07T01:36:15.444Z,91.01
2023-05-07T01:38:43.583Z,91.30
2023-05-07T01:41:12.620Z,90.95
2023-05-07T01:43:42.457Z,90.99
2023-05-07T01:46:11.516Z,91.88
2023-05-07T01:48:40.734Z,92.70
2023-05-07T01:51:10.129Z,93.03
2023-05-07T01:53:38.454Z,94.59
2023-05-07T01:56:06.513Z,95.09
2023-05-07T01:58:35.838Z,96.35
2023-05-07T02:01:03.443Z,97.72
2023-05-07T02:03:31.943Z,97.19
2023-05-07T02:06:08.705Z,96.50
2023-05-07T02:08:40.138Z,95.62
2023-05-07T02:11:07.819Z,95.64
2023-05-07T02:13:37.671Z,96.78
2023-05-07T02:16:06.812Z,96.29
2023-05-07T02:18:34.837Z,97.34
2023-05-07T02:21:02.370Z,97.63
2023-05-07T02:23:29.905Z,97.59
2023-05-07T02:25:57.923Z,97.71
2023-05-07T02:28:25.519Z,97.78
2023-05-07T02:30:59.666Z,97.92
2023-05-07T02:33:27.614Z,97.58
2023-05-07T02:35:55.705Z,97.99
2023-05-07T02:38:23.846Z,98.38
2023-05-07T02:40:51.500Z,97.84
2023-05-07T02:43:19.464Z,97.90
2023-05-07T02:45:49.282Z,99.24
2023-05-07T02:48:17.134Z,98.83
2023-05-07T02:50:45.192Z,98.60
2023-05-07T02:53:15.532Z,98.00
2023-05-07T02:55:43.475Z,98.04
2023-05-07T02:58:11.004Z,97.60
2023-05-07T03:00:41.332Z,97.65
2023-05-07T03:03:20.095Z,98.29
2023-05-07T03:05:48.406Z,98.46
2023-05-07T03:08:16.508Z,99.39
2023-05-07T03:10:44.454Z,99.89
2023-05-07T03:13:12.225Z,100.00
2023-05-07T03:15:40.525Z,100.00
2023-05-07T03:18:08.390Z,100.00
2023-05-07T03:20:37.500Z,100.00
2023-05-07T03:23:05.349Z,100.00
2023-05-07T03:25:33.418Z,100.00
2023-05-07T03:28:01.570Z,100.00
2023-05-07T03:30:38.511Z,100.00
2023-05-07T03:33:06.540Z,100.00
2023-05-07T03:35:34.735Z,100.00
2023-05-07T03:38:02.588Z,100.00
2023-05-07T03:40:33.392Z,100.00
2023-05-07T03:43:02.044Z,100.00
2023-05-07T03:45:31.937Z,100.00
2023-05-07T03:48:08.911Z,100.00
2023-05-07T03:50:37.252Z,100.00
2023-05-07T03:53:04.771Z,100.00
2023-05-07T03:55:36.705Z,100.00
2023-05-07T03:58:04.239Z,100.00
2023-05-07T04:00:34.701Z,100.00
2023-05-07T04:03:02.879Z,100.00
2023-05-07T04:05:32.457Z,100.00
2023-05-07T04:08:03.468Z,100.00
2023-05-07T04:10:42.760Z,100.00
2023-05-07T04:13:12.705Z,100.00
2023-05-07T04:15:40.385Z,100.00
2023-05-07T04:18:13.797Z,100.00
2023-05-07T04:20:45.521Z,100.00
2023-05-07T04:23:16.299Z,100.00
2023-05-07T04:25:44.442Z,100.00
2023-05-07T04:28:21.680Z,100.00
2023-05-07T04:30:50.136Z,100.00
2023-05-07T04:33:18.408Z,100.00
2023-05-07T04:35:47.285Z,100.00
2023-05-07T04:38:15.331Z,100.00
2023-05-07T04:40:43.646Z,100.00
2023-05-07T04:43:15.229Z,99.23
2023-05-07T04:45:47.685Z,97.20
2023-05-07T04:48:17.172Z,95.58
2023-05-07T04:50:45.274Z,95.57
2023-05-07T04:53:15.194Z,94.78
2023-05-07T04:55:42.756Z,92.33
2023-05-07T04:58:10.654Z,91.96
2023-05-07T05:00:41.138Z,91.32
2023-05-07T05:03:09.164Z,90.41
2023-05-07T05:05:39.174Z,91.44
2023-05-07T05:08:07.306Z,92.61
2023-05-07T05:10:37.559Z,93.59
2023-05-07T05:13:07.095Z,93.62
2023-05-07T05:15:35.178Z,94.10
2023-05-07T05:18:04.158Z,93.84
2023-05-07T05:20:32.596Z,96.16
2023-05-07T05:23:00.160Z,96.30
2023-05-07T05:25:28.687Z,93.71
2023-05-07T05:27:57.619Z,94.24
2023-05-07T05:30:25.721Z,91.78
2023-05-07T05:32:53.454Z,90.76
2023-05-07T05:35:21.051Z,88.24
2023-05-07T05:37:49.273Z,87.52
2023-05-07T05:40:18.518Z,86.88
2023-05-07T05:42:47.491Z,88.95
2023-05-07T05:45:15.781Z,87.80
2023-05-07T05:47:43.748Z,85.36
2023-05-07T05:50:11.667Z,83.26
2023-05-07T05:52:39.584Z,82.94
2023-05-07T05:55:07.688Z,83.20
2023-05-07T05:57:37.434Z,82.05
2023-05-07T06:00:05.706Z,81.64
2023-05-07T06:02:35.290Z,78.22
2023-05-07T06:05:05.138Z,77.83
2023-05-07T06:07:32.846Z,81.41
2023-05-07T06:10:00.350Z,78.33
2023-05-07T06:12:29.511Z,80.16
2023-05-07T06:14:57.406Z,77.34
2023-05-07T06:17:25.993Z,76.83
2023-05-07T06:19:54.053Z,73.66
2023-05-07T06:22:22.343Z,71.19
2023-05-07T06:24:50.348Z,72.56
2023-05-07T06:27:18.009Z,69.86
2023-05-07T06:29:46.546Z,71.01
2023-05-07T06:32:18.164Z,70.07
2023-05-07T06:34:47.314Z,68.61
2023-05-07T06:37:16.163Z,67.60
2023-05-07T06:40:13.736Z,67.45
2023-05-07T06:42:43.319Z,65.38
2023-05-07T06:45:29.933Z,65.32
2023-05-07T06:47:58.841Z,65.03
2023-05-07T06:50:27.985Z,66.63
2023-05-07T06:52:58.652Z,72.67
2023-05-07T06:55:27.035Z,70.37
2023-05-07T06:57:56.534Z,69.90
2023-05-07T07:00:26.140Z,69.07
2023-05-07T07:02:57.024Z,70.06
2023-05-07T07:05:28.262Z,74.35
2023-05-07T07:07:57.167Z,78.10
2023-05-07T07:10:25.624Z,77.56
2023-05-07T07:12:55.107Z,75.79
2023-05-07T07:15:25.987Z,77.87
2023-05-07T07:17:54.939Z,79.84
2023-05-07T07:20:24.324Z,77.34
2023-05-07T07:22:52.402Z,77.75
2023-05-07T07:25:20.122Z,74.15
2023-05-07T07:27:50.542Z,70.69
2023-05-07T07:30:18.500Z,66.24
2023-05-07T07:32:49.593Z,63.32
2023-05-07T07:35:17.478Z,64.43
2023-05-07T07:37:46.445Z,67.16
2023-05-07T07:40:15.798Z,66.72
2023-05-07T07:42:44.483Z,62.86
2023-05-07T07:45:13.459Z,57.58
2023-05-07T07:47:46.189Z,56.99
2023-05-07T07:50:21.955Z,56.59
2023-05-07T07:53:01.482Z,55.61
2023-05-07T07:55:29.998Z,54.21
2023-05-07T07:57:57.669Z,53.57
2023-05-07T08:00:26.173Z,54.94
2023-05-07T08:02:57.478Z,55.33
2023-05-07T08:05:30.716Z,55.45
2023-05-07T08:07:59.751Z,52.38
2023-05-07T08:10:35.632Z,50.81
2023-05-07T08:13:09.145Z,51.87
2023-05-07T08:15:39.040Z,53.08
2023-05-07T08:18:07.370Z,52.58
2023-05-07T08:20:40.397Z,52.41
2023-05-07T08:23:11.138Z,53.00
2023-05-07T08:25:41.171Z,52.80
2023-05-07T08:28:10.203Z,53.73
2023-05-07T08:30:39.604Z,53.64
2023-05-07T08:33:07.620Z,51.65
2023-05-07T08:35:35.262Z,51.52
2023-05-07T08:38:03.552Z,49.98
2023-05-07T08:40:39.959Z,49.64
2023-05-07T08:43:14.390Z,47.39
2023-05-07T08:45:43.240Z,46.90
2023-05-07T08:48:18.351Z,47.31
2023-05-07T08:50:53.112Z,47.28
2023-05-07T08:53:24.587Z,46.37
2023-05-07T08:55:54.575Z,47.81
2023-05-07T08:58:22.307Z,47.54
2023-05-07T09:00:53.234Z,44.96
2023-05-07T09:03:22.250Z,44.18
2023-05-07T09:05:52.572Z,45.20
2023-05-07T09:08:27.510Z,43.64
2023-05-07T09:10:57.393Z,42.57
2023-05-07T09:13:25.910Z,44.27
2023-05-07T09:15:53.865Z,42.93
2023-05-07T09:18:23.000Z,42.31
2023-05-07T09:20:52.035Z,40.50
2023-05-07T09:23:22.088Z,39.26
2023-05-07T09:25:49.906Z,41.42
2023-05-07T09:28:25.554Z,39.41
2023-05-07T09:30:54.018Z,39.03
2023-05-07T09:33:21.914Z,38.71
2023-05-07T09:35:53.530Z,40.64
2023-05-07T09:38:22.750Z,39.58
2023-05-07T09:41:08.115Z,38.61
2023-05-07T09:43:42.612Z,38.21
2023-05-07T09:46:16.355Z,38.33
2023-05-07T09:48:53.562Z,38.41
2023-05-07T09:51:35.153Z,38.82
2023-05-07T09:54:04.466Z,40.16
2023-05-07T09:56:35.527Z,43.26
2023-05-07T09:59:05.074Z,41.19
2023-05-07T10:01:37.136Z,39.55
2023-05-07T10:04:06.570Z,38.81
2023-05-07T10:06:35.993Z,36.71
2023-05-07T10:09:06.652Z,34.99
2023-05-07T10:11:36.313Z,34.88
2023-05-07T10:14:06.886Z,36.13
2023-05-07T10:16:37.744Z,36.78
2023-05-07T10:19:11.192Z,36.62
2023-05-07T10:21:45.667Z,35.75
2023-05-07T10:24:37.785Z,35.33
2023-05-07T10:27:15.480Z,33.20
2023-05-07T10:30:16.848Z,33.53
2023-05-07T10:32:54.110Z,33.85
2023-05-07T10:35:33.812Z,33.20
2023-05-07T10:38:05.066Z,31.91
2023-05-07T10:40:36.865Z,34.95
2023-05-07T10:43:10.026Z,32.50
2023-05-07T10:46:19.625Z,32.19
2023-05-07T10:49:07.328Z,32.62
2023-05-07T10:52:21.725Z,31.03
2023-05-07T10:55:22.788Z,29.68
2023-05-07T10:58:31.439Z,29.48
2023-05-07T11:01:57.186Z,30.55
2023-05-07T11:04:39.995Z,30.60
2023-05-07T11:07:28.230Z,30.30
2023-05-07T11:10:02.684Z,31.93
2023-05-07T11:12:57.521Z,31.42
2023-05-07T11:15:44.407Z,28.28
2023-05-07T11:18:53.769Z,28.18
2023-05-07T11:21:42.199Z,27.84
2023-05-07T11:24:42.080Z,29.68
2023-05-07T11:27:10.360Z,27.39
2023-05-07T11:29:38.188Z,26.02
2023-05-07T11:32:13.840Z,25.52
2023-05-07T11:34:57.241Z,26.60
2023-05-07T11:37:28.530Z,26.59
2023-05-07T11:40:10.479Z,27.71
2023-05-07T11:42:42.228Z,27.64
2023-05-07T11:45:11.271Z,28.46
2023-05-07T11:47:39.342Z,27.65
2023-05-07T11:50:12.120Z,25.34
2023-05-07T11:52:40.382Z,24.77
2023-05-07T11:55:09.198Z,26.10
2023-05-07T11:57:36.967Z,28.54
2023-05-07T12:00:06.477Z,27.42
2023-05-07T12:02:46.714Z,26.02
2023-05-07T12:05:14.899Z,25.39
2023-05-07T12:07:42.734Z,25.78
2023-05-07T12:10:12.849Z,26.85
2023-05-07T12:12:43.072Z,26.81
2023-05-07T12:15:14.144Z,26.99
2023-05-07T12:17:41.991Z,24.45
2023-05-07T12:20:11.575Z,23.84
2023-05-07T12:22:39.785Z,23.78
2023-05-07T12:25:08.304Z,23.75
2023-05-07T12:27:40.094Z,23.71
2023-05-07T12:30:11.039Z,25.03
2023-05-07T12:32:38.652Z,24.58
2023-05-07T12:35:07.701Z,26.66
2023-05-07T12:37:39.970Z,26.89
2023-05-07T12:40:10.031Z,24.54
2023-05-07T12:42:39.531Z,23.79
2023-05-07T12:45:14.970Z,23.33
2023-05-07T12:47:49.596Z,23.60
2023-05-07T12:50:18.160Z,23.62
2023-05-07T12:52:48.032Z,22.26
2023-05-07T12:55:17.451Z,22.95
2023-05-07T12:57:54.653Z,23.54
2023-05-07T13:00:37.560Z,23.83
2023-05-07T13:03:06.168Z,21.56
2023-05-07T13:05:33.799Z,20.24
2023-05-07T13:08:02.917Z,18.86
2023-05-07T13:10:30.943Z,19.19
2023-05-07T13:12:58.643Z,19.31
2023-05-07T13:15:28.100Z,19.81
2023-05-07T13:17:56.620Z,22.81
2023-05-07T13:20:25.102Z,21.55
2023-05-07T13:22:52.746Z,21.39
2023-05-07T13:25:20.418Z,20.31
2023-05-07T13:27:53.986Z,20.49
2023-05-07T13:30:28.249Z,20.48
2023-05-07T13:32:57.398Z,21.06
2023-05-07T13:35:25.842Z,21.69
2023-05-07T13:37:53.913Z,23.60
2023-05-07T13:40:23.430Z,23.12
2023-05-07T13:42:52.049Z,21.52
2023-05-07T13:45:20.547Z,21.50
2023-05-07T13:47:50.608Z,20.32
2023-05-07T13:50:18.752Z,19.31
2023-05-07T13:52:51.784Z,21.88
2023-05-07T13:55:20.628Z,21.42
2023-05-07T13:57:49.181Z,23.01
2023-05-07T14:00:17.386Z,23.93
2023-05-07T14:02:45.578Z,22.64
2023-05-07T14:05:14.593Z,23.84
2023-05-07T14:07:42.182Z,22.66
2023-05-07T14:10:11.014Z,20.99
2023-05-07T14:12:39.393Z,20.42
2023-05-07T14:15:07.583Z,21.04
2023-05-07T14:17:35.239Z,20.35
2023-05-07T14:20:03.581Z,21.45
2023-05-07T14:22:31.595Z,21.69
2023-05-07T14:25:14.562Z,21.33
2023-05-07T14:27:44.601Z,21.35
2023-05-07T14:30:13.130Z,22.05
2023-05-07T14:32:40.706Z,20.75
2023-05-07T14:35:09.463Z,22.21
2023-05-07T14:37:37.142Z,22.21
2023-05-07T14:40:05.528Z,21.65
2023-05-07T14:42:33.118Z,22.58
2023-05-07T14:45:01.346Z,23.78
2023-05-07T14:47:28.937Z,23.35
2023-05-07T14:49:58.375Z,22.52
2023-05-07T14:52:27.086Z,21.70
2023-05-07T14:54:54.656Z,22.00
2023-05-07T14:57:22.705Z,22.09
2023-05-07T14:59:50.231Z,21.97
2023-05-07T15:02:21.207Z,22.62
2023-05-07T15:04:49.735Z,24.14
2023-05-07T15:07:17.429Z,23.07
2023-05-07T15:09:45.709Z,23.15
2023-05-07T15:12:13.600Z,23.28
2023-05-07T15:14:41.653Z,25.36
2023-05-07T15:17:09.299Z,25.72
2023-05-07T15:19:37.468Z,25.47
2023-05-07T15:22:06.788Z,26.07
2023-05-07T15:24:34.662Z,26.04
2023-05-07T15:27:04.113Z,28.47
2023-05-07T15:29:32.789Z,28.37
2023-05-07T15:32:01.785Z,27.05
2023-05-07T15:34:29.522Z,27.08
2023-05-07T15:36:58.342Z,26.50
2023-05-07T15:39:25.986Z,25.97
2023-05-07T15:41:54.075Z,24.95
2023-05-07T15:44:22.230Z,26.06
2023-05-07T15:46:50.677Z,25.99
2023-05-07T15:49:18.682Z,28.81
2023-05-07T15:51:46.655Z,29.75
2023-05-07T15:54:14.505Z,29.36
2023-05-07T15:56:42.027Z,29.21
2023-05-07T15:59:10.310Z,29.43
2023-05-07T16:01:38.084Z,29.63
2023-05-07T16:04:08.288Z,30.39
2023-05-07T16:06:35.864Z,31.00
2023-05-07T16:09:04.132Z,31.97
2023-05-07T16:11:34.011Z,33.00
2023-05-07T16:14:02.204Z,33.37
2023-05-07T16:16:34.063Z,32.52
2023-05-07T16:19:02.556Z,32.28
2023-05-07T16:21:30.942Z,30.79
2023-05-07T16:23:59.521Z,28.98
2023-05-07T16:26:27.198Z,28.45
2023-05-07T16:28:54.899Z,30.78
2023-05-07T16:31:22.695Z,29.24
2023-05-07T16:33:50.853Z,29.11
2023-05-07T16:36:19.513Z,28.95
2023-05-07T16:38:47.379Z,28.80
2023-05-07T16:41:15.602Z,30.52
2023-05-07T16:43:43.561Z,30.83
2023-05-07T16:46:11.984Z,31.75
2023-05-07T16:48:39.841Z,30.68
2023-05-07T16:51:08.429Z,32.35
2023-05-07T16:53:36.045Z,33.47
2023-05-07T16:56:06.736Z,33.19
2023-05-07T16:58:34.995Z,34.52
2023-05-07T17:01:02.713Z,35.43
2023-05-07T17:03:32.325Z,37.11
2023-05-07T17:06:00.177Z,37.08
2023-05-07T17:08:27.825Z,38.08
2023-05-07T17:10:55.842Z,37.98
2023-05-07T17:13:23.820Z,37.80
2023-05-07T17:15:53.922Z,38.78
2023-05-07T17:18:21.598Z,38.60
2023-05-07T17:20:49.609Z,38.11
2023-05-07T17:23:18.375Z,38.44
2023-05-07T17:25:46.377Z,38.50
2023-05-07T17:28:14.410Z,39.35
2023-05-07T17:30:42.718Z,40.22
2023-05-07T17:33:20.257Z,41.14
2023-05-07T17:35:50.221Z,41.21
2023-05-07T17:38:18.498Z,41.42
2023-05-07T17:40:47.016Z,41.37
2023-05-07T17:43:15.773Z,41.04
2023-05-07T17:45:43.407Z,41.73
2023-05-07T17:48:11.509Z,42.40
2023-05-07T17:50:39.737Z,42.47
2023-05-07T17:53:09.811Z,42.61
2023-05-07T17:55:42.355Z,42.64
2023-05-07T17:58:10.158Z,43.21
2023-05-07T18:00:39.100Z,43.45
2023-05-07T18:03:07.289Z,43.71
2023-05-07T18:05:38.255Z,45.59
2023-05-07T18:08:10.140Z,43.96
2023-05-07T18:10:37.885Z,43.87
2023-05-07T18:13:05.893Z,44.66
2023-05-07T18:15:33.551Z,43.40
2023-05-07T18:18:01.710Z,42.86
2023-05-07T18:20:29.921Z,43.28
2023-05-07T18:22:57.572Z,43.66
2023-05-07T18:25:25.121Z,43.87
2023-05-07T18:27:53.596Z,45.67
2023-05-07T18:30:25.162Z,47.74
2023-05-07T18:32:53.284Z,50.13
2023-05-07T18:35:23.378Z,52.97
2023-05-07T18:37:51.480Z,55.21
2023-05-07T18:40:21.078Z,57.69
2023-05-07T18:42:48.810Z,58.42
2023-05-07T18:45:16.604Z,59.93
2023-05-07T18:47:44.245Z,60.10
2023-05-07T18:50:12.277Z,61.05
2023-05-07T18:52:41.270Z,62.78
2023-05-07T18:55:11.795Z,61.92
2023-05-07T18:57:40.089Z,64.08
2023-05-07T19:00:09.328Z,63.16
2023-05-07T19:02:38.008Z,64.25
2023-05-07T19:05:07.008Z,65.89
2023-05-07T19:07:34.720Z,68.63
2023-05-07T19:10:05.720Z,71.01
2023-05-07T19:12:33.983Z,73.13
2023-05-07T19:15:01.572Z,73.61
2023-05-07T19:17:30.265Z,74.77
2023-05-07T19:19:58.414Z,73.92
2023-05-07T19:22:27.011Z,73.14
2023-05-07T19:24:54.960Z,74.75
2023-05-07T19:27:22.679Z,74.62
2023-05-07T19:29:51.122Z,72.86
2023-05-07T19:32:21.481Z,73.90
2023-05-07T19:34:50.178Z,74.55
2023-05-07T19:37:18.429Z,74.66
2023-05-07T19:39:46.701Z,76.39
2023-05-07T19:42:14.813Z,75.57
2023-05-07T19:44:42.451Z,75.15
2023-05-07T19:47:10.119Z,75.52
2023-05-07T19:49:37.795Z,75.54
2023-05-07T19:52:05.903Z,78.28
2023-05-07T19:54:33.656Z,78.39
2023-05-07T19:57:01.746Z,79.67
2023-05-07T19:59:29.765Z,82.98
2023-05-07T20:01:57.343Z,82.49
2023-05-07T20:04:33.042Z,82.74
2023-05-07T20:07:00.970Z,83.28
2023-05-07T20:09:29.161Z,83.00
2023-05-07T20:11:57.199Z,83.81
2023-05-07T20:14:25.017Z,82.77
2023-05-07T20:16:52.693Z,83.29
2023-05-07T20:19:20.585Z,83.28
2023-05-07T20:21:48.964Z,84.56
2023-05-07T20:24:19.255Z,84.32
2023-05-07T20:26:47.401Z,83.81
2023-05-07T20:29:15.621Z,83.74
2023-05-07T20:31:44.398Z,82.99
2023-05-07T20:34:12.651Z,83.66
2023-05-07T20:36:41.172Z,84.68
2023-05-07T20:39:09.707Z,85.21
2023-05-07T20:41:37.554Z,86.60
2023-05-07T20:44:05.768Z,87.28
2023-05-07T20:46:33.860Z,86.69
2023-05-07T20:49:01.555Z,86.99
2023-05-07T20:51:30.483Z,86.43
2023-05-07T20:53:58.224Z,85.21
2023-05-07T20:56:26.785Z,85.52
2023-05-07T20:58:54.516Z,84.42
2023-05-07T21:01:25.146Z,83.68
2023-05-07T21:03:54.284Z,83.56
2023-05-07T21:06:21.951Z,83.63
2023-05-07T21:08:49.504Z,81.72
2023-05-07T21:11:18.230Z,82.26
2023-05-07T21:13:46.761Z,82.57
2023-05-07T21:16:14.589Z,82.00
2023-05-07T21:18:42.408Z,81.55
2023-05-07T21:21:11.160Z,82.25
2023-05-07T21:23:38.810Z,80.25
2023-05-07T21:26:06.565Z,79.20
2023-05-07T21:28:34.739Z,78.98
2023-05-07T21:31:02.462Z,80.71
2023-05-07T21:33:30.694Z,80.09
2023-05-07T21:36:00.467Z,78.88
2023-05-07T21:38:28.114Z,77.79
2023-05-07T21:40:57.336Z,77.20
2023-05-07T21:43:25.101Z,77.71
2023-05-07T21:45:52.687Z,77.89
2023-05-07T21:48:23.821Z,74.05
2023-05-07T21:51:06.334Z,66.90
2023-05-07T21:53:35.314Z,61.59
2023-05-07T21:56:05.070Z,58.91
2023-05-07T21:58:33.392Z,58.02
2023-05-07T22:01:01.920Z,68.95
2023-05-07T22:03:30.244Z,70.88
2023-05-07T22:05:58.760Z,68.89
2023-05-07T22:08:26.430Z,71.17
2023-05-07T22:10:53.948Z,74.05
2023-05-07T22:13:21.639Z,76.32
2023-05-07T22:15:57.295Z,77.03
2023-05-07T22:18:26.867Z,83.87
2023-05-07T22:20:54.779Z,91.06
2023-05-07T22:23:23.044Z,94.51
2023-05-07T22:25:50.753Z,97.19
2023-05-07T22:28:19.064Z,100.00
2023-05-07T22:30:48.259Z,100.00
2023-05-07T22:33:15.880Z,100.00
2023-05-07T22:35:43.530Z,100.00
2023-05-07T22:38:11.342Z,100.00
2023-05-07T22:40:39.882Z,100.00
2023-05-07T22:43:07.538Z,100.00
2023-05-07T22:45:35.905Z,100.00
2023-05-07T22:48:04.200Z,100.00
2023-05-07T22:50:32.276Z,100.00
2023-05-07T22:52:59.955Z,100.00
2023-05-07T22:55:27.505Z,100.00
2023-05-07T22:57:55.299Z,100.00
2023-05-07T23:00:22.949Z,100.00
2023-05-07T23:02:51.649Z,100.00
2023-05-07T23:05:20.530Z,100.00
2023-05-07T23:07:48.495Z,100.00
2023-05-07T23:10:16.624Z,100.00
2023-05-07T23:12:49.102Z,100.00
2023-05-07T23:15:18.082Z,100.00
2023-05-07T23:17:47.728Z,100.00
2023-05-07T23:20:15.725Z,100.00
2023-05-07T23:22:43.229Z,100.00
2023-05-07T23:25:11.449Z,100.00
2023-05-07T23:27:39.675Z,100.00
2023-05-07T23:30:08.870Z,100.00
2023-05-07T23:32:37.014Z,100.00
2023-05-07T23:35:05.676Z,100.00
2023-05-07T23:37:33.205Z,100.00
2023-05-07T23:40:01.376Z,100.00
2023-05-07T23:42:29.410Z,100.00
2023-05-07T23:44:57.717Z,100.00
2023-05-07T23:47:25.930Z,100.00
2023-05-07T23:49:53.591Z,100.00
2023-05-07T23:52:22.085Z,100.00
2023-05-07T23:54:49.923Z,100.00
2023-05-07T23:57:17.697Z,100.00
2023-05-07T23:59:45.420Z,100.00
